createdAt,value
2018-10-04T00:01:50.677Z,2.60
2018-10-04T00:04:21.372Z,2.67
2018-10-04T00:06:54.987Z,2.37
2018-10-04T00:09:25.561Z,2.33
2018-10-04T00:11:56.087Z,2.60
2018-10-04T00:14:26.881Z,2.50
2018-10-04T00:16:57.578Z,2.30
2018-10-04T00:19:28.106Z,2.63
2018-10-04T00:21:58.711Z,2.80
2018-10-04T00:24:29.325Z,2.87
2018-10-04T00:26:59.866Z,2.40
2018-10-04T00:29:30.556Z,3.00
2018-10-04T00:32:01.168Z,2.40
2018-10-04T00:34:31.779Z,2.47
2018-10-04T00:37:02.324Z,2.60
2018-10-04T00:39:32.954Z,2.47
2018-10-04T00:42:03.667Z,2.67
2018-10-04T00:44:34.333Z,2.90
2018-10-04T00:47:07.803Z,2.30
2018-10-04T00:49:38.489Z,2.60
2018-10-04T00:52:09.185Z,2.30
2018-10-04T00:54:39.817Z,3.10
2018-10-04T00:57:10.452Z,2.33
2018-10-04T00:59:41.467Z,2.90
2018-10-04T01:02:12.113Z,2.80
2018-10-04T01:04:42.775Z,2.87
2018-10-04T01:07:13.869Z,2.93
2018-10-04T01:09:44.506Z,2.17
2018-10-04T01:12:15.147Z,2.57
2018-10-04T01:14:45.779Z,2.63
2018-10-04T01:17:16.355Z,2.70
2018-10-04T01:19:47.042Z,2.57
2018-10-04T01:22:17.649Z,2.93
2018-10-04T01:24:48.390Z,3.40
2018-10-04T01:27:19.006Z,2.60
2018-10-04T01:29:49.566Z,2.80
2018-10-04T01:32:20.089Z,2.77
2018-10-04T01:34:50.772Z,2.87
2018-10-04T01:37:21.276Z,2.60
2018-10-04T01:39:51.930Z,2.60
2018-10-04T01:42:22.568Z,3.20
2018-10-04T01:44:53.249Z,3.20
2018-10-04T01:47:23.792Z,3.20
2018-10-04T01:49:54.580Z,3.00
2018-10-04T01:52:25.070Z,2.93
2018-10-04T01:54:55.738Z,2.58
2018-10-04T01:57:26.246Z,3.00
2018-10-04T01:59:56.829Z,3.10
2018-10-04T02:02:27.408Z,3.30
2018-10-04T02:04:58.012Z,3.23
2018-10-04T02:07:28.548Z,3.03
2018-10-04T02:09:59.129Z,2.83
2018-10-04T02:12:30.531Z,3.00
2018-10-04T02:15:01.150Z,3.07
2018-10-04T02:17:31.648Z,2.77
2018-10-04T02:20:02.253Z,2.97
2018-10-04T02:22:32.830Z,3.07
2018-10-04T02:25:03.396Z,2.97
2018-10-04T02:27:33.923Z,3.30
2018-10-04T02:30:04.593Z,3.57
2018-10-04T02:32:40.529Z,3.40
2018-10-04T02:35:11.372Z,3.33
2018-10-04T02:37:42.025Z,3.23
2018-10-04T02:40:12.796Z,3.50
2018-10-04T02:42:43.459Z,3.47
2018-10-04T02:45:13.989Z,3.70
2018-10-04T02:47:47.530Z,3.83
2018-10-04T02:50:18.106Z,3.73
2018-10-04T02:52:48.668Z,4.07
2018-10-04T02:55:24.274Z,3.83
2018-10-04T02:57:54.796Z,4.10
2018-10-04T03:00:25.349Z,4.60
2018-10-04T03:02:55.855Z,5.10
2018-10-04T03:05:26.377Z,4.77
2018-10-04T03:07:56.906Z,4.53
2018-10-04T03:10:27.467Z,4.30
2018-10-04T03:12:58.071Z,5.10
2018-10-04T03:15:28.787Z,4.70
2018-10-04T03:17:59.393Z,4.27
2018-10-04T03:20:29.893Z,4.43
2018-10-04T03:23:00.504Z,4.80
2018-10-04T03:25:31.134Z,5.00
2018-10-04T03:28:01.589Z,5.50
2018-10-04T03:30:32.188Z,5.53
2018-10-04T03:33:02.882Z,5.27
2018-10-04T03:35:33.728Z,5.00
2018-10-04T03:38:04.269Z,5.33
2018-10-04T03:40:34.824Z,4.87
2018-10-04T03:43:05.432Z,5.43
2018-10-04T03:45:35.978Z,5.67
2018-10-04T03:48:06.628Z,4.80
2018-10-04T03:50:37.197Z,4.50
2018-10-04T03:53:08.217Z,5.20
2018-10-04T03:55:39.249Z,5.03
2018-10-04T03:58:09.919Z,5.50
2018-10-04T04:00:41.033Z,5.23
2018-10-04T04:03:11.553Z,4.43
2018-10-04T04:05:42.148Z,4.70
2018-10-04T04:08:12.650Z,4.90
2018-10-04T04:10:43.279Z,4.97
2018-10-04T04:13:13.860Z,5.03
2018-10-04T04:15:44.496Z,4.87
2018-10-04T04:18:15.170Z,4.10
2018-10-04T04:20:45.587Z,4.93
2018-10-04T04:23:16.118Z,4.47
2018-10-04T04:25:46.844Z,4.97
2018-10-04T04:28:17.228Z,5.30
2018-10-04T04:30:47.856Z,4.00
2018-10-04T04:33:19.237Z,5.10
2018-10-04T04:35:50.199Z,5.20
2018-10-04T04:38:21.611Z,4.60
2018-10-04T04:40:52.196Z,4.70
2018-10-04T04:43:22.636Z,4.73
2018-10-04T04:45:53.016Z,4.17
2018-10-04T04:48:23.385Z,4.73
2018-10-04T04:50:54.043Z,4.63
2018-10-04T04:53:44.129Z,4.47
2018-10-04T04:56:14.696Z,4.37
2018-10-04T04:58:45.068Z,4.20
2018-10-04T05:01:15.565Z,4.13
2018-10-04T05:03:46.007Z,3.70
2018-10-04T05:06:16.531Z,3.80
2018-10-04T05:08:46.913Z,3.77
2018-10-04T05:11:17.336Z,3.77
2018-10-04T05:13:47.784Z,4.00
2018-10-04T05:16:18.233Z,3.40
2018-10-04T05:18:48.648Z,3.27
2018-10-04T05:21:19.109Z,3.40
2018-10-04T05:23:49.565Z,3.20
2018-10-04T05:26:20.033Z,3.43
2018-10-04T05:28:50.479Z,3.43
2018-10-04T05:31:21.001Z,3.87
2018-10-04T05:33:51.783Z,3.70
2018-10-04T05:36:22.210Z,3.63
2018-10-04T05:38:52.569Z,3.33
2018-10-04T05:41:23.315Z,3.83
2018-10-04T05:43:54.732Z,3.30
2018-10-04T05:46:25.033Z,3.47
2018-10-04T05:48:55.477Z,3.50
2018-10-04T05:51:25.839Z,3.40
2018-10-04T05:53:56.441Z,3.83
2018-10-04T05:56:26.813Z,2.93
2018-10-04T05:58:57.202Z,4.10
2018-10-04T06:01:27.525Z,3.33
2018-10-04T06:03:57.895Z,3.60
2018-10-04T06:06:28.199Z,3.47
2018-10-04T06:08:58.669Z,3.70
2018-10-04T06:11:28.977Z,3.13
2018-10-04T06:13:59.389Z,3.60
2018-10-04T06:16:29.725Z,3.80
2018-10-04T06:19:00.245Z,3.17
2018-10-04T06:21:30.594Z,3.63
2018-10-04T06:24:01.040Z,3.10
2018-10-04T06:26:31.373Z,3.37
2018-10-04T06:29:02.093Z,3.17
2018-10-04T06:31:32.507Z,3.57
2018-10-04T06:34:02.941Z,3.50
2018-10-04T06:36:33.303Z,3.87
2018-10-04T06:39:05.493Z,3.40
2018-10-04T06:41:35.990Z,3.40
2018-10-04T06:44:06.667Z,3.50
2018-10-04T06:46:37.059Z,3.63
2018-10-04T06:49:07.975Z,3.70
2018-10-04T06:51:38.508Z,3.70
2018-10-04T06:54:08.914Z,4.03
2018-10-04T06:56:39.373Z,3.53
2018-10-04T06:59:09.877Z,4.00
2018-10-04T07:01:40.230Z,2.97
2018-10-04T07:04:10.680Z,3.17
2018-10-04T07:06:41.043Z,3.90
2018-10-04T07:09:12.102Z,3.15
2018-10-04T07:11:42.464Z,3.30
2018-10-04T07:14:12.925Z,3.60
2018-10-04T07:16:43.372Z,3.90
2018-10-04T07:19:13.799Z,3.97
2018-10-04T07:21:44.157Z,3.30
2018-10-04T07:24:14.936Z,3.50
2018-10-04T07:26:45.484Z,3.50
2018-10-04T07:29:15.962Z,3.50
2018-10-04T07:31:46.400Z,3.90
2018-10-04T07:34:16.878Z,3.70
2018-10-04T07:36:47.233Z,3.90
2018-10-04T07:39:17.633Z,3.83
2018-10-04T07:41:48.117Z,3.57
2018-10-04T07:44:18.590Z,3.60
2018-10-04T07:46:49.037Z,3.83
2018-10-04T07:49:19.468Z,3.80
2018-10-04T07:51:49.886Z,4.17
2018-10-04T07:54:20.474Z,3.63
2018-10-04T07:56:50.818Z,3.50
2018-10-04T07:59:21.196Z,4.30
2018-10-04T08:01:51.587Z,3.50
2018-10-04T08:04:22.010Z,4.03
2018-10-04T08:06:52.461Z,3.60
2018-10-04T08:09:22.906Z,4.00
2018-10-04T08:11:53.340Z,3.80
2018-10-04T08:14:23.845Z,4.00
2018-10-04T08:16:54.246Z,3.80
2018-10-04T08:19:24.759Z,4.57
2018-10-04T08:21:55.211Z,4.00
2018-10-04T08:24:25.738Z,4.57
2018-10-04T08:26:56.123Z,4.47
2018-10-04T08:29:26.584Z,4.40
2018-10-04T08:31:57.038Z,3.73
2018-10-04T08:34:27.610Z,4.00
2018-10-04T08:36:58.002Z,3.93
2018-10-04T08:39:28.590Z,3.73
2018-10-04T08:41:59.412Z,4.50
2018-10-04T08:44:30.281Z,4.60
2018-10-04T08:47:00.704Z,4.80
2018-10-04T08:49:31.172Z,4.20
2018-10-04T08:52:01.585Z,4.70
2018-10-04T08:54:31.988Z,4.57
2018-10-04T08:57:02.493Z,4.90
2018-10-04T08:59:32.998Z,4.37
2018-10-04T09:02:03.440Z,4.40
2018-10-04T09:04:33.985Z,4.87
2018-10-04T09:07:04.514Z,4.20
2018-10-04T09:09:34.972Z,5.00
2018-10-04T09:12:05.485Z,4.40
2018-10-04T09:14:35.924Z,4.47
2018-10-04T09:17:06.512Z,4.67
2018-10-04T09:19:37.074Z,4.90
2018-10-04T09:22:09.562Z,4.87
2018-10-04T09:24:41.123Z,5.27
2018-10-04T09:27:11.529Z,5.47
2018-10-04T09:29:47.074Z,4.93
2018-10-04T09:32:17.600Z,5.33
2018-10-04T09:34:48.134Z,4.70
2018-10-04T09:37:18.540Z,5.37
2018-10-04T09:39:49.072Z,5.23
2018-10-04T09:42:19.550Z,5.57
2018-10-04T09:44:50.062Z,5.07
2018-10-04T09:47:25.609Z,4.90
2018-10-04T09:49:56.444Z,5.50
2018-10-04T09:52:27.006Z,4.83
2018-10-04T09:55:02.552Z,4.70
2018-10-04T09:57:33.208Z,5.63
2018-10-04T10:00:07.706Z,5.17
2018-10-04T10:02:38.308Z,5.13
2018-10-04T10:05:08.966Z,5.43
2018-10-04T10:07:39.466Z,5.57
2018-10-04T10:10:10.327Z,5.37
2018-10-04T10:12:41.294Z,5.00
2018-10-04T10:15:12.075Z,5.60
2018-10-04T10:17:42.687Z,5.27
2018-10-04T10:20:13.798Z,5.80
2018-10-04T10:22:44.289Z,5.00
2018-10-04T10:25:14.826Z,5.63
2018-10-04T10:27:45.248Z,5.77
2018-10-04T10:30:15.872Z,5.07
2018-10-04T10:32:46.283Z,6.10
2018-10-04T10:35:16.844Z,5.17
2018-10-04T10:37:47.245Z,5.00
2018-10-04T10:40:17.882Z,5.57
2018-10-04T10:42:48.566Z,5.60
2018-10-04T10:45:19.113Z,5.00
2018-10-04T10:47:49.573Z,5.60
2018-10-04T10:50:20.067Z,5.47
2018-10-04T10:52:50.449Z,5.13
2018-10-04T10:55:20.989Z,6.20
2018-10-04T10:57:51.353Z,5.67
2018-10-04T11:00:21.866Z,5.50
2018-10-04T11:02:52.261Z,5.17
2018-10-04T11:05:22.723Z,5.47
2018-10-04T11:07:53.200Z,5.17
2018-10-04T11:10:23.772Z,5.33
2018-10-04T11:12:54.274Z,5.17
2018-10-04T11:15:24.760Z,5.30
2018-10-04T11:17:55.498Z,4.97
2018-10-04T11:20:26.191Z,5.13
2018-10-04T11:22:56.654Z,5.17
2018-10-04T11:25:27.193Z,5.07
2018-10-04T11:27:57.655Z,5.60
2018-10-04T11:30:28.187Z,4.63
2018-10-04T11:32:58.665Z,5.37
2018-10-04T11:35:29.225Z,5.90
2018-10-04T11:37:59.772Z,4.97
2018-10-04T11:40:30.194Z,5.00
2018-10-04T11:43:00.752Z,4.40
2018-10-04T11:45:33.649Z,4.73
2018-10-04T11:48:04.165Z,5.30
2018-10-04T11:50:34.798Z,5.43
2018-10-04T11:53:05.331Z,5.00
2018-10-04T11:55:35.892Z,5.03
2018-10-04T11:58:06.515Z,4.57
2018-10-04T12:00:37.022Z,5.10
2018-10-04T12:03:07.662Z,5.40
2018-10-04T12:05:38.160Z,4.90
2018-10-04T12:08:08.645Z,5.17
2018-10-04T12:10:39.169Z,5.23
2018-10-04T12:13:09.577Z,4.80
2018-10-04T12:15:40.064Z,5.37
2018-10-04T12:18:23.248Z,4.27
2018-10-04T12:20:53.990Z,4.10
2018-10-04T12:23:25.648Z,4.47
2018-10-04T12:25:56.230Z,4.63
2018-10-04T12:28:26.673Z,4.57
2018-10-04T12:30:57.240Z,4.90
2018-10-04T12:33:27.641Z,4.33
2018-10-04T12:35:58.138Z,5.20
2018-10-04T12:38:28.606Z,4.63
2018-10-04T12:40:59.086Z,4.70
2018-10-04T12:43:29.594Z,4.00
2018-10-04T12:46:00.056Z,4.20
2018-10-04T12:48:30.450Z,4.13
2018-10-04T12:51:00.863Z,4.57
2018-10-04T12:53:31.320Z,4.57
2018-10-04T12:56:01.886Z,3.90
2018-10-04T12:58:32.324Z,3.70
2018-10-04T13:01:02.858Z,4.20
2018-10-04T13:03:33.373Z,4.03
2018-10-04T13:06:03.873Z,3.77
2018-10-04T13:08:34.649Z,4.23
2018-10-04T13:11:05.162Z,4.03
2018-10-04T13:13:35.613Z,4.20
2018-10-04T13:16:06.167Z,3.80
2018-10-04T13:18:36.613Z,4.17
2018-10-04T13:21:07.353Z,3.80
2018-10-04T13:23:37.666Z,3.60
2018-10-04T13:26:08.438Z,3.50
2018-10-04T13:28:38.938Z,3.77
2018-10-04T13:31:09.643Z,3.60
2018-10-04T13:33:40.207Z,3.97
2018-10-04T13:36:10.737Z,3.80
2018-10-04T13:38:41.215Z,3.37
2018-10-04T13:41:11.780Z,3.70
2018-10-04T13:43:42.336Z,3.40
2018-10-04T13:46:12.879Z,3.87
2018-10-04T13:48:43.228Z,4.17
2018-10-04T13:51:13.789Z,3.53
2018-10-04T13:53:44.193Z,3.70
2018-10-04T13:56:14.624Z,4.10
2018-10-04T13:58:45.111Z,3.93
2018-10-04T14:01:15.588Z,4.03
2018-10-04T14:03:46.060Z,4.60
2018-10-04T14:06:16.578Z,4.30
2018-10-04T14:08:47.132Z,3.67
2018-10-04T14:11:17.734Z,3.90
2018-10-04T14:13:48.186Z,4.50
2018-10-04T14:16:18.807Z,3.97
2018-10-04T14:18:49.208Z,3.73
2018-10-04T14:21:19.815Z,3.67
2018-10-04T14:23:50.176Z,3.23
2018-10-04T14:26:20.682Z,3.70
2018-10-04T14:28:51.114Z,3.83
2018-10-04T14:31:21.657Z,3.40
2018-10-04T14:33:53.320Z,3.23
2018-10-04T14:36:23.686Z,3.37
2018-10-04T14:38:54.188Z,3.40
2018-10-04T14:41:24.801Z,3.20
2018-10-04T14:43:55.206Z,3.63
2018-10-04T14:46:25.744Z,3.90
2018-10-04T14:48:56.369Z,3.10
2018-10-04T14:51:26.945Z,3.40
2018-10-04T14:53:57.395Z,3.93
2018-10-04T14:56:27.866Z,3.17
2018-10-04T14:58:58.371Z,3.62
2018-10-04T15:01:28.830Z,3.77
2018-10-04T15:03:59.274Z,3.42
2018-10-04T15:06:30.031Z,3.70
2018-10-04T15:09:00.520Z,4.10
2018-10-04T15:11:31.120Z,4.20
2018-10-04T15:14:01.605Z,4.07
2018-10-04T15:16:32.204Z,3.93
2018-10-04T15:19:02.705Z,4.00
2018-10-04T15:21:33.261Z,4.10
2018-10-04T15:24:03.776Z,3.40
2018-10-04T15:26:34.306Z,4.10
2018-10-04T15:29:04.848Z,3.97
2018-10-04T15:31:35.410Z,4.07
2018-10-04T15:34:06.019Z,4.13
2018-10-04T15:36:36.464Z,4.20
2018-10-04T15:39:10.036Z,4.03
2018-10-04T15:41:40.765Z,4.13
2018-10-04T15:44:11.245Z,3.90
2018-10-04T15:46:41.745Z,4.10
2018-10-04T15:49:12.209Z,4.20
2018-10-04T15:51:42.788Z,3.90
2018-10-04T15:54:13.324Z,4.03
2018-10-04T15:56:43.940Z,4.27
2018-10-04T15:59:14.405Z,4.10
2018-10-04T16:01:44.943Z,4.50
2018-10-04T16:04:15.484Z,3.97
2018-10-04T16:06:46.010Z,4.20
2018-10-04T16:09:16.570Z,3.93
2018-10-04T16:11:47.077Z,4.77
2018-10-04T16:14:17.621Z,4.13
2018-10-04T16:16:48.160Z,4.50
2018-10-04T16:19:18.596Z,4.03
2018-10-04T16:21:49.130Z,4.43
2018-10-04T16:24:19.655Z,4.43
2018-10-04T16:26:50.529Z,4.13
2018-10-04T16:29:21.254Z,4.60
2018-10-04T16:31:51.749Z,4.77
2018-10-04T16:34:22.110Z,4.45
2018-10-04T16:36:52.856Z,4.70
2018-10-04T16:39:23.289Z,4.60
2018-10-04T16:41:54.055Z,4.47
2018-10-04T16:44:24.494Z,4.47
2018-10-04T16:46:54.969Z,4.83
2018-10-04T16:49:25.475Z,4.93
2018-10-04T16:51:55.923Z,4.73
2018-10-04T16:54:26.455Z,4.50
2018-10-04T16:56:56.994Z,4.20
2018-10-04T16:59:27.338Z,4.87
2018-10-04T17:01:57.748Z,4.40
2018-10-04T17:04:28.189Z,5.00
2018-10-04T17:06:58.649Z,4.97
2018-10-04T17:09:29.282Z,5.23
2018-10-04T17:11:59.763Z,4.63
2018-10-04T17:14:30.153Z,4.50
2018-10-04T17:17:00.605Z,4.77
2018-10-04T17:19:31.887Z,4.30
2018-10-04T17:22:02.353Z,4.67
2018-10-04T17:24:32.771Z,4.70
2018-10-04T17:27:03.152Z,4.77
2018-10-04T17:29:33.596Z,5.37
2018-10-04T17:32:04.020Z,5.27
2018-10-04T17:34:34.781Z,5.23
2018-10-04T17:37:05.216Z,5.03
2018-10-04T17:39:35.516Z,4.40
2018-10-04T17:42:06.060Z,4.93
2018-10-04T17:44:36.466Z,5.23
2018-10-04T17:47:07.050Z,4.57
2018-10-04T17:49:37.513Z,4.97
2018-10-04T17:52:08.145Z,4.60
2018-10-04T17:54:38.606Z,5.30
2018-10-04T17:57:09.122Z,5.30
2018-10-04T17:59:39.607Z,5.77
2018-10-04T18:02:10.144Z,5.00
2018-10-04T18:04:40.680Z,5.77
2018-10-04T18:07:11.288Z,5.50
2018-10-04T18:09:41.831Z,5.37
2018-10-04T18:12:12.590Z,4.87
2018-10-04T18:14:43.138Z,5.47
2018-10-04T18:17:13.878Z,5.37
2018-10-04T18:19:44.319Z,5.50
2018-10-04T18:22:14.876Z,5.37
2018-10-04T18:24:45.385Z,5.40
2018-10-04T18:27:16.015Z,5.90
2018-10-04T18:29:46.487Z,5.20
2018-10-04T18:32:17.048Z,5.27
2018-10-04T18:34:47.568Z,5.87
2018-10-04T18:37:18.069Z,5.60
2018-10-04T18:39:48.439Z,5.93
2018-10-04T18:42:19.002Z,5.97
2018-10-04T18:44:49.447Z,6.03
2018-10-04T18:47:19.989Z,6.57
2018-10-04T18:49:50.448Z,6.43
2018-10-04T18:52:20.887Z,6.63
2018-10-04T18:54:51.294Z,6.93
2018-10-04T18:57:21.763Z,6.90
2018-10-04T18:59:52.138Z,6.87
2018-10-04T19:02:22.584Z,6.17
2018-10-04T19:04:52.963Z,6.83
2018-10-04T19:07:23.367Z,6.27
2018-10-04T19:09:53.726Z,6.67
2018-10-04T19:12:24.188Z,7.77
2018-10-04T19:14:54.628Z,7.57
2018-10-04T19:17:25.172Z,7.97
2018-10-04T19:19:55.613Z,8.53
2018-10-04T19:22:26.070Z,7.57
2018-10-04T19:24:56.597Z,7.83
2018-10-04T19:27:27.185Z,7.50
2018-10-04T19:29:57.771Z,7.53
2018-10-04T19:32:28.244Z,6.37
2018-10-04T19:34:58.829Z,7.63
2018-10-04T19:37:29.412Z,7.63
2018-10-04T19:40:00.084Z,7.40
2018-10-04T19:42:31.044Z,7.20
2018-10-04T19:45:01.574Z,7.57
2018-10-04T19:47:32.322Z,7.10
2018-10-04T19:50:03.073Z,7.50
2018-10-04T19:52:33.587Z,7.37
2018-10-04T19:55:04.002Z,8.23
2018-10-04T19:57:34.649Z,7.13
2018-10-04T20:00:05.219Z,7.20
2018-10-04T20:02:35.832Z,8.00
2018-10-04T20:05:07.114Z,7.77
2018-10-04T20:07:37.644Z,7.90
2018-10-04T20:10:08.454Z,7.30
2018-10-04T20:12:39.114Z,8.10
2018-10-04T20:15:09.729Z,7.47
2018-10-04T20:17:41.510Z,7.33
2018-10-04T20:20:11.999Z,7.93
2018-10-04T20:22:42.902Z,7.20
2018-10-04T20:25:13.469Z,8.30
2018-10-04T20:27:44.149Z,8.80
2018-10-04T20:30:14.661Z,8.53
2018-10-04T20:32:45.285Z,8.03
2018-10-04T20:35:15.785Z,7.67
2018-10-04T20:37:46.483Z,8.20
2018-10-04T20:40:17.063Z,7.97
2018-10-04T20:42:47.615Z,7.13
2018-10-04T20:45:18.154Z,7.30
2018-10-04T20:47:48.702Z,7.13
2018-10-04T20:50:19.334Z,6.60
2018-10-04T20:52:49.907Z,7.23
2018-10-04T20:55:20.468Z,6.90
2018-10-04T20:57:52.046Z,7.20
2018-10-04T21:00:22.652Z,7.40
2018-10-04T21:02:53.292Z,7.67
2018-10-04T21:05:23.930Z,6.57
2018-10-04T21:07:54.581Z,6.73
2018-10-04T21:10:25.060Z,6.67
2018-10-04T21:12:55.448Z,7.47
2018-10-04T21:15:25.873Z,6.57
2018-10-04T21:17:56.629Z,6.67
2018-10-04T21:20:27.185Z,6.60
2018-10-04T21:22:57.924Z,7.70
2018-10-04T21:25:28.453Z,7.53
2018-10-04T21:27:58.925Z,6.77
2018-10-04T21:30:29.344Z,6.70
2018-10-04T21:32:59.770Z,7.63
2018-10-04T21:35:30.375Z,6.97
2018-10-04T21:38:01.067Z,7.20
2018-10-04T21:40:31.538Z,6.83
2018-10-04T21:43:02.315Z,6.43
2018-10-04T21:45:32.830Z,7.13
2018-10-04T21:48:03.379Z,7.00
2018-10-04T21:50:33.808Z,6.60
2018-10-04T21:53:04.303Z,6.83
2018-10-04T21:55:34.734Z,7.20
2018-10-04T21:58:05.352Z,7.70
2018-10-04T22:00:36.005Z,6.60
2018-10-04T22:03:06.708Z,6.57
2018-10-04T22:05:37.254Z,6.20
2018-10-04T22:08:07.860Z,6.47
2018-10-04T22:10:38.320Z,6.13
2018-10-04T22:13:09.183Z,6.53
2018-10-04T22:15:39.687Z,6.37
2018-10-04T22:18:10.244Z,6.97
2018-10-04T22:20:40.759Z,6.40
2018-10-04T22:23:11.265Z,6.87
2018-10-04T22:25:41.751Z,6.53
2018-10-04T22:28:12.209Z,6.00
2018-10-04T22:30:42.818Z,6.53
2018-10-04T22:33:13.400Z,6.43
2018-10-04T22:35:43.965Z,7.03
2018-10-04T22:38:14.544Z,6.67
2018-10-04T22:40:45.100Z,6.47
2018-10-04T22:43:15.907Z,7.00
2018-10-04T22:45:46.521Z,6.53
2018-10-04T22:48:17.093Z,7.27
2018-10-04T22:50:47.594Z,6.57
2018-10-04T22:53:18.068Z,6.63
2018-10-04T22:55:48.562Z,6.67
2018-10-04T22:58:19.103Z,6.30
2018-10-04T23:00:49.638Z,6.87
2018-10-04T23:03:20.125Z,6.30
2018-10-04T23:05:50.636Z,6.57
2018-10-04T23:08:21.054Z,7.07
2018-10-04T23:10:51.467Z,6.50
2018-10-04T23:13:21.855Z,7.37
2018-10-04T23:15:52.207Z,6.67
2018-10-04T23:18:22.644Z,6.90
2018-10-04T23:20:52.952Z,5.83
2018-10-04T23:23:23.364Z,6.20
2018-10-04T23:25:53.777Z,6.20
2018-10-04T23:28:24.168Z,6.37
2018-10-04T23:30:54.672Z,7.30
2018-10-04T23:33:25.187Z,6.63
2018-10-04T23:35:55.608Z,7.10
2018-10-04T23:38:26.067Z,5.87
2018-10-04T23:40:56.432Z,6.97
2018-10-04T23:43:27.021Z,6.33
2018-10-04T23:45:57.417Z,7.20
2018-10-04T23:48:27.929Z,6.67
2018-10-04T23:50:58.297Z,6.70
2018-10-04T23:53:28.789Z,6.43
2018-10-04T23:55:59.271Z,6.60
2018-10-04T23:58:30.633Z,6.73
